createdAt,value
2022-12-11T00:02:08.121Z,-0.91
2022-12-11T00:04:34.526Z,-0.96
2022-12-11T00:07:00.936Z,-1.03
2022-12-11T00:09:27.331Z,-1.02
2022-12-11T00:11:53.734Z,-1.03
2022-12-11T00:14:20.113Z,-1.01
2022-12-11T00:16:48.005Z,-1.04
2022-12-11T00:19:14.426Z,-1.09
2022-12-11T00:21:40.837Z,-1.11
2022-12-11T00:24:07.389Z,-1.06
2022-12-11T00:26:33.772Z,-1.12
2022-12-11T00:29:00.157Z,-1.16
2022-12-11T00:31:26.632Z,-1.27
2022-12-11T00:33:53.062Z,-1.30
2022-12-11T00:36:24.338Z,-1.25
2022-12-11T00:38:50.760Z,-1.15
2022-12-11T00:41:17.438Z,-1.13
2022-12-11T00:43:43.875Z,-1.12
2022-12-11T00:46:10.616Z,-1.18
2022-12-11T00:48:37.166Z,-1.24
2022-12-11T00:51:03.662Z,-1.15
2022-12-11T00:53:30.130Z,-1.15
2022-12-11T00:55:56.510Z,-1.14
2022-12-11T00:58:22.960Z,-1.09
2022-12-11T01:00:49.340Z,-1.15
2022-12-11T01:03:15.950Z,-1.15
2022-12-11T01:05:42.491Z,-1.16
2022-12-11T01:08:08.958Z,-1.16
2022-12-11T01:10:35.472Z,-1.19
2022-12-11T01:13:04.100Z,-1.21
2022-12-11T01:15:32.555Z,-1.26
2022-12-11T01:17:58.996Z,-1.30
2022-12-11T01:20:25.790Z,-1.29
2022-12-11T01:22:53.273Z,-1.14
2022-12-11T01:25:19.693Z,-1.02
2022-12-11T01:27:46.101Z,-0.95
2022-12-11T01:30:12.579Z,-0.94
2022-12-11T01:32:38.979Z,-1.06
2022-12-11T01:35:06.500Z,-1.09
2022-12-11T01:37:33.173Z,-1.10
2022-12-11T01:40:00.479Z,-1.08
2022-12-11T01:42:26.981Z,-1.02
2022-12-11T01:44:53.254Z,-1.00
2022-12-11T01:47:19.649Z,-1.00
2022-12-11T01:49:46.054Z,-0.93
2022-12-11T01:52:18.542Z,-0.96
2022-12-11T01:54:44.990Z,-1.00
2022-12-11T01:57:11.430Z,-1.03
2022-12-11T01:59:39.780Z,-1.05
2022-12-11T02:02:12.245Z,-1.11
2022-12-11T02:04:38.981Z,-1.16
2022-12-11T02:07:05.429Z,-1.14
2022-12-11T02:09:33.197Z,-1.12
2022-12-11T02:12:12.824Z,-1.09
2022-12-11T02:14:59.921Z,-1.04
2022-12-11T02:17:32.082Z,-1.04
2022-12-11T02:20:30.951Z,-1.08
2022-12-11T02:23:06.109Z,-1.07
2022-12-11T02:26:06.369Z,-1.04
2022-12-11T02:28:41.630Z,-1.05
2022-12-11T02:31:19.803Z,-0.97
2022-12-11T02:34:09.486Z,-0.95
2022-12-11T02:36:38.088Z,-0.97
2022-12-11T02:39:04.651Z,-0.96
2022-12-11T02:41:31.063Z,-1.02
2022-12-11T02:43:57.471Z,-1.00
2022-12-11T02:46:23.880Z,-0.96
2022-12-11T02:48:50.474Z,-0.87
2022-12-11T02:51:17.935Z,-0.84
2022-12-11T02:53:44.306Z,-0.82
2022-12-11T02:56:21.703Z,-0.78
2022-12-11T02:58:52.708Z,-0.74
2022-12-11T03:01:23.337Z,-0.72
2022-12-11T03:03:49.737Z,-0.75
2022-12-11T03:06:17.651Z,-0.71
2022-12-11T03:08:44.587Z,-0.68
2022-12-11T03:11:11.973Z,-0.66
2022-12-11T03:13:39.191Z,-0.67
2022-12-11T03:16:11.694Z,-0.67
2022-12-11T03:19:10.541Z,-0.66
2022-12-11T03:21:45.948Z,-0.69
2022-12-11T03:24:28.535Z,-0.65
2022-12-11T03:26:58.428Z,-0.70
2022-12-11T03:29:37.845Z,-0.70
2022-12-11T03:32:09.351Z,-0.78
2022-12-11T03:34:44.593Z,-0.86
2022-12-11T03:37:11.683Z,-0.91
2022-12-11T03:39:39.998Z,-1.01
2022-12-11T03:42:07.725Z,-1.05
2022-12-11T03:44:34.294Z,-1.03
2022-12-11T03:47:01.333Z,-1.08
2022-12-11T03:49:29.188Z,-1.09
2022-12-11T03:51:56.350Z,-1.14
2022-12-11T03:54:23.128Z,-1.14
2022-12-11T03:56:49.571Z,-1.09
2022-12-11T03:59:15.986Z,-1.05
2022-12-11T04:01:42.488Z,-1.12
2022-12-11T04:04:09.013Z,-1.14
2022-12-11T04:06:35.437Z,-1.11
2022-12-11T04:09:01.865Z,-1.06
2022-12-11T04:11:28.245Z,-1.00
2022-12-11T04:13:54.633Z,-0.93
2022-12-11T04:16:21.099Z,-0.99
2022-12-11T04:18:47.537Z,-1.03
2022-12-11T04:21:13.995Z,-1.05
2022-12-11T04:23:40.383Z,-0.99
2022-12-11T04:26:17.065Z,-1.04
2022-12-11T04:28:43.876Z,-1.03
2022-12-11T04:31:14.326Z,-1.11
2022-12-11T04:33:40.814Z,-1.14
2022-12-11T04:36:07.662Z,-1.11
2022-12-11T04:38:34.034Z,-1.09
2022-12-11T04:41:06.465Z,-1.06
2022-12-11T04:43:32.934Z,-0.99
2022-12-11T04:46:02.118Z,-0.92
2022-12-11T04:48:28.550Z,-0.88
2022-12-11T04:50:54.949Z,-0.89
2022-12-11T04:53:21.346Z,-0.91
2022-12-11T04:55:47.722Z,-0.88
2022-12-11T04:58:14.149Z,-0.89
2022-12-11T05:00:41.180Z,-1.00
2022-12-11T05:03:07.976Z,-1.01
2022-12-11T05:05:34.522Z,-1.01
2022-12-11T05:08:00.960Z,-0.94
2022-12-11T05:10:27.407Z,-0.98
2022-12-11T05:12:53.809Z,-0.98
2022-12-11T05:15:20.191Z,-0.97
2022-12-11T05:17:46.641Z,-0.91
2022-12-11T05:20:13.025Z,-0.86
2022-12-11T05:22:39.507Z,-0.86
2022-12-11T05:25:06.630Z,-0.84
2022-12-11T05:27:33.192Z,-0.84
2022-12-11T05:29:59.835Z,-0.84
2022-12-11T05:32:26.334Z,-0.89
2022-12-11T05:34:52.716Z,-0.92
2022-12-11T05:37:19.127Z,-0.91
2022-12-11T05:39:45.525Z,-0.94
2022-12-11T05:42:11.917Z,-0.94
2022-12-11T05:44:38.316Z,-0.91
2022-12-11T05:47:04.783Z,-0.91
2022-12-11T05:49:31.344Z,-0.92
2022-12-11T05:51:57.787Z,-0.95
2022-12-11T05:54:24.193Z,-0.98
2022-12-11T05:56:50.609Z,-0.98
2022-12-11T05:59:17.078Z,-0.93
2022-12-11T06:01:43.625Z,-0.91
2022-12-11T06:04:10.837Z,-0.87
2022-12-11T06:06:37.231Z,-0.86
2022-12-11T06:09:03.987Z,-0.83
2022-12-11T06:11:31.324Z,-0.82
2022-12-11T06:13:57.816Z,-0.84
2022-12-11T06:16:24.317Z,-0.85
2022-12-11T06:18:50.870Z,-0.87
2022-12-11T06:21:19.341Z,-0.91
2022-12-11T06:23:46.365Z,-0.95
2022-12-11T06:26:12.906Z,-0.98
2022-12-11T06:28:39.440Z,-0.99
2022-12-11T06:31:05.908Z,-1.04
2022-12-11T06:33:32.378Z,-1.12
2022-12-11T06:36:05.703Z,-1.20
2022-12-11T06:38:32.174Z,-1.31
2022-12-11T06:40:59.323Z,-1.35
2022-12-11T06:43:25.724Z,-1.41
2022-12-11T06:45:52.169Z,-1.49
2022-12-11T06:48:19.464Z,-1.54
2022-12-11T06:50:46.089Z,-1.57
2022-12-11T06:53:13.105Z,-1.61
2022-12-11T06:55:39.579Z,-1.63
2022-12-11T06:58:05.966Z,-1.69
2022-12-11T07:00:32.374Z,-1.73
2022-12-11T07:02:58.769Z,-1.75
2022-12-11T07:05:25.196Z,-1.79
2022-12-11T07:07:53.750Z,-1.82
2022-12-11T07:10:25.737Z,-1.85
2022-12-11T07:12:54.947Z,-1.90
2022-12-11T07:15:21.371Z,-1.94
2022-12-11T07:17:47.759Z,-2.04
2022-12-11T07:20:17.754Z,-2.10
2022-12-11T07:22:48.892Z,-2.17
2022-12-11T07:25:15.722Z,-2.15
2022-12-11T07:27:42.097Z,-2.15
2022-12-11T07:30:09.298Z,-2.14
2022-12-11T07:32:35.715Z,-2.15
2022-12-11T07:35:02.150Z,-2.15
2022-12-11T07:37:28.544Z,-2.18
2022-12-11T07:39:55.031Z,-2.24
2022-12-11T07:42:21.417Z,-2.26
2022-12-11T07:44:47.812Z,-2.26
2022-12-11T07:47:14.210Z,-2.23
2022-12-11T07:49:40.589Z,-2.19
2022-12-11T07:52:06.982Z,-2.22
2022-12-11T07:54:33.377Z,-2.28
2022-12-11T07:56:59.781Z,-2.32
2022-12-11T07:59:26.158Z,-2.35
2022-12-11T08:01:52.572Z,-2.37
2022-12-11T08:04:18.950Z,-2.38
2022-12-11T08:06:45.361Z,-2.36
2022-12-11T08:09:17.484Z,-2.36
2022-12-11T08:11:51.225Z,-2.33
2022-12-11T08:14:18.037Z,-2.33
2022-12-11T08:16:44.657Z,-2.32
2022-12-11T08:19:13.988Z,-2.33
2022-12-11T08:21:40.402Z,-2.28
2022-12-11T08:24:07.974Z,-2.26
2022-12-11T08:26:34.572Z,-2.25
2022-12-11T08:29:01.267Z,-2.21
2022-12-11T08:31:27.809Z,-2.19
2022-12-11T08:33:55.087Z,-2.12
2022-12-11T08:36:21.920Z,-2.01
2022-12-11T08:38:48.436Z,-1.98
2022-12-11T08:41:22.550Z,-1.99
2022-12-11T08:44:00.010Z,-1.88
2022-12-11T08:46:28.271Z,-1.81
2022-12-11T08:48:57.825Z,-1.88
2022-12-11T08:51:25.530Z,-1.75
2022-12-11T08:53:53.982Z,-1.72
2022-12-11T08:56:20.493Z,-1.68
2022-12-11T08:58:47.309Z,-1.69
2022-12-11T09:01:15.310Z,-1.66
2022-12-11T09:03:44.616Z,-1.60
2022-12-11T09:06:12.782Z,-1.61
2022-12-11T09:08:39.371Z,-1.59
2022-12-11T09:11:10.370Z,-1.60
2022-12-11T09:13:37.246Z,-1.58
2022-12-11T09:16:08.006Z,-1.54
2022-12-11T09:18:34.631Z,-1.49
2022-12-11T09:21:05.836Z,-1.45
2022-12-11T09:23:32.514Z,-1.40
2022-12-11T09:25:58.985Z,-1.44
2022-12-11T09:28:25.575Z,-1.45
2022-12-11T09:30:52.082Z,-1.44
2022-12-11T09:33:18.503Z,-1.44
2022-12-11T09:35:44.894Z,-1.40
2022-12-11T09:38:11.301Z,-1.40
2022-12-11T09:40:41.397Z,-1.33
2022-12-11T09:43:09.568Z,-1.29
2022-12-11T09:45:35.983Z,-1.31
2022-12-11T09:48:02.398Z,-1.29
2022-12-11T09:50:31.890Z,-1.31
2022-12-11T09:53:18.762Z,-1.25
2022-12-11T09:55:49.315Z,-1.22
2022-12-11T09:58:48.114Z,-1.20
2022-12-11T10:01:26.395Z,-1.17
2022-12-11T10:03:59.318Z,-1.15
2022-12-11T10:06:33.121Z,-1.17
2022-12-11T10:08:59.402Z,-1.17
2022-12-11T10:11:31.804Z,-1.18
2022-12-11T10:14:07.721Z,-1.19
2022-12-11T10:16:35.824Z,-1.22
2022-12-11T10:19:02.214Z,-1.23
2022-12-11T10:21:29.555Z,-1.26
2022-12-11T10:24:00.581Z,-1.22
2022-12-11T10:26:27.750Z,-1.18
2022-12-11T10:28:54.154Z,-1.14
2022-12-11T10:31:41.615Z,-1.05
2022-12-11T10:34:41.483Z,-1.05
2022-12-11T10:37:07.870Z,-1.13
2022-12-11T10:39:34.276Z,-1.05
2022-12-11T10:42:00.653Z,-1.03
2022-12-11T10:44:30.810Z,-0.99
2022-12-11T10:47:23.253Z,-0.96
2022-12-11T10:50:02.312Z,-0.93
2022-12-11T10:52:32.225Z,-0.92
2022-12-11T10:55:03.628Z,-0.94
2022-12-11T10:57:32.211Z,-0.91
2022-12-11T10:59:58.649Z,-0.89
2022-12-11T11:02:30.935Z,-0.87
2022-12-11T11:04:58.623Z,-0.87
2022-12-11T11:07:34.476Z,-0.83
2022-12-11T11:10:15.508Z,-0.82
2022-12-11T11:12:45.610Z,-0.78
2022-12-11T11:15:19.361Z,-0.80
2022-12-11T11:17:55.506Z,-0.80
2022-12-11T11:20:29.736Z,-0.81
2022-12-11T11:22:57.710Z,-0.80
2022-12-11T11:25:28.858Z,-0.79
2022-12-11T11:28:05.476Z,-0.82
2022-12-11T11:30:39.525Z,-0.84
2022-12-11T11:33:26.097Z,-0.86
2022-12-11T11:36:03.496Z,-0.81
2022-12-11T11:38:42.869Z,-0.75
2022-12-11T11:41:36.017Z,-0.59
2022-12-11T11:44:04.412Z,-0.62
2022-12-11T11:46:37.292Z,-0.59
2022-12-11T11:49:12.809Z,-0.59
2022-12-11T11:51:47.722Z,-0.58
2022-12-11T11:54:51.715Z,-0.54
2022-12-11T11:57:32.449Z,-0.47
2022-12-11T12:00:21.410Z,-0.45
2022-12-11T12:02:56.153Z,-0.37
2022-12-11T12:05:59.693Z,-0.33
2022-12-11T12:08:46.922Z,-0.27
2022-12-11T12:11:20.075Z,-0.19
2022-12-11T12:14:00.559Z,-0.10
2022-12-11T12:16:52.796Z,-0.01
2022-12-11T12:19:38.393Z,0.15
2022-12-11T12:22:35.756Z,0.26
2022-12-11T12:25:15.543Z,0.35
2022-12-11T12:27:52.766Z,0.38
2022-12-11T12:30:22.983Z,0.40
2022-12-11T12:32:56.149Z,0.43
2022-12-11T12:36:06.794Z,0.48
2022-12-11T12:38:40.117Z,0.42
2022-12-11T12:41:16.072Z,0.34
2022-12-11T12:44:00.320Z,0.34
2022-12-11T12:46:38.836Z,0.39
2022-12-11T12:49:05.247Z,0.44
2022-12-11T12:51:31.634Z,0.47
2022-12-11T12:54:00.643Z,0.49
2022-12-11T12:56:27.810Z,0.56
2022-12-11T12:58:54.230Z,3.17
2022-12-11T13:01:22.714Z,6.96
2022-12-11T13:03:56.800Z,9.81
2022-12-11T13:06:50.697Z,9.44
2022-12-11T13:09:17.011Z,7.65
2022-12-11T13:11:43.501Z,6.62
2022-12-11T13:14:16.170Z,5.29
2022-12-11T13:16:43.768Z,4.09
2022-12-11T13:19:22.551Z,3.14
2022-12-11T13:22:04.071Z,2.64
2022-12-11T13:24:31.400Z,2.18
2022-12-11T13:27:11.251Z,1.67
2022-12-11T13:29:41.625Z,1.31
2022-12-11T13:32:07.923Z,1.16
2022-12-11T13:34:42.858Z,1.05
2022-12-11T13:37:40.209Z,1.04
2022-12-11T13:40:28.053Z,1.08
2022-12-11T13:42:59.542Z,1.02
2022-12-11T13:45:28.513Z,1.00
2022-12-11T13:47:57.902Z,1.00
2022-12-11T13:50:26.339Z,1.02
2022-12-11T13:52:54.006Z,1.03
2022-12-11T13:55:23.446Z,0.97
2022-12-11T13:57:49.851Z,0.88
2022-12-11T14:00:34.384Z,0.82
2022-12-11T14:03:05.160Z,0.81
2022-12-11T14:05:31.537Z,0.80
2022-12-11T14:07:59.540Z,0.74
2022-12-11T14:10:27.472Z,0.70
2022-12-11T14:12:53.781Z,0.60
2022-12-11T14:15:20.331Z,0.59
2022-12-11T14:17:51.539Z,0.52
2022-12-11T14:20:32.380Z,0.46
2022-12-11T14:23:22.065Z,0.41
2022-12-11T14:26:18.746Z,0.32
2022-12-11T14:28:45.143Z,0.22
2022-12-11T14:31:14.480Z,0.11
2022-12-11T14:33:43.374Z,0.05
2022-12-11T14:36:09.986Z,-0.01
2022-12-11T14:38:44.460Z,-0.05
2022-12-11T14:41:19.927Z,-0.11
2022-12-11T14:43:48.779Z,-0.17
2022-12-11T14:46:21.948Z,-0.28
2022-12-11T14:48:59.085Z,-0.34
2022-12-11T14:51:28.138Z,-0.43
2022-12-11T14:53:54.553Z,-0.48
2022-12-11T14:56:22.723Z,-0.51
2022-12-11T14:58:59.141Z,-0.60
2022-12-11T15:01:32.634Z,-0.71
2022-12-11T15:04:05.560Z,-0.79
2022-12-11T15:06:33.489Z,-0.77
2022-12-11T15:09:31.493Z,-0.83
2022-12-11T15:11:59.517Z,-0.97
2022-12-11T15:14:26.650Z,-1.03
2022-12-11T15:16:54.483Z,-0.99
2022-12-11T15:19:31.506Z,-0.94
2022-12-11T15:22:04.541Z,-0.88
2022-12-11T15:24:41.611Z,-0.82
2022-12-11T15:27:28.702Z,-0.79
2022-12-11T15:29:55.103Z,-0.79
2022-12-11T15:32:21.510Z,-0.80
2022-12-11T15:34:50.665Z,-0.84
2022-12-11T15:37:33.809Z,-0.89
2022-12-11T15:40:00.944Z,-0.95
2022-12-11T15:42:30.316Z,-0.97
2022-12-11T15:44:56.711Z,-0.97
2022-12-11T15:47:24.761Z,-0.98
2022-12-11T15:49:58.661Z,-1.01
2022-12-11T15:52:25.105Z,-1.01
2022-12-11T15:54:51.567Z,-1.00
2022-12-11T15:57:22.104Z,-1.02
2022-12-11T15:59:48.699Z,-1.02
2022-12-11T16:02:15.403Z,-1.02
2022-12-11T16:04:41.831Z,-1.02
2022-12-11T16:07:23.570Z,-1.01
2022-12-11T16:09:49.957Z,-0.96
2022-12-11T16:12:20.114Z,-0.94
2022-12-11T16:14:46.542Z,-0.99
2022-12-11T16:17:13.918Z,-1.01
2022-12-11T16:19:40.874Z,-1.00
2022-12-11T16:22:07.428Z,-1.02
2022-12-11T16:24:36.647Z,-1.03
2022-12-11T16:27:03.695Z,-1.03
2022-12-11T16:29:34.003Z,-1.03
2022-12-11T16:32:02.283Z,-1.02
2022-12-11T16:34:28.705Z,-1.02
2022-12-11T16:36:57.807Z,-1.01
2022-12-11T16:39:24.341Z,-1.02
2022-12-11T16:41:50.813Z,-0.99
2022-12-11T16:44:23.378Z,-0.94
2022-12-11T16:46:51.976Z,-0.91
2022-12-11T16:49:18.440Z,-0.89
2022-12-11T16:51:44.940Z,-0.89
2022-12-11T16:54:11.445Z,-0.90
2022-12-11T16:56:40.328Z,-0.89
2022-12-11T16:59:09.147Z,-0.88
2022-12-11T17:01:35.592Z,-0.88
2022-12-11T17:04:04.340Z,-0.89
2022-12-11T17:06:30.769Z,-0.89
2022-12-11T17:08:57.182Z,-0.91
2022-12-11T17:11:23.785Z,-0.93
2022-12-11T17:13:57.268Z,-0.92
2022-12-11T17:16:24.058Z,-0.91
2022-12-11T17:18:50.458Z,-0.89
2022-12-11T17:21:20.542Z,-0.83
2022-12-11T17:23:46.803Z,-0.83
2022-12-11T17:26:14.316Z,-0.84
2022-12-11T17:28:40.719Z,-0.85
2022-12-11T17:31:08.568Z,-0.85
2022-12-11T17:33:35.221Z,-0.83
2022-12-11T17:36:02.382Z,-0.82
2022-12-11T17:38:28.969Z,-0.81
2022-12-11T17:40:55.405Z,-0.81
2022-12-11T17:43:21.812Z,-0.81
2022-12-11T17:45:49.604Z,-0.82
2022-12-11T17:48:16.513Z,-0.88
2022-12-11T17:50:43.680Z,-0.92
2022-12-11T17:53:10.417Z,-0.98
2022-12-11T17:55:40.740Z,-1.03
2022-12-11T17:58:07.184Z,-1.05
2022-12-11T18:00:33.649Z,-1.07
2022-12-11T18:03:00.072Z,-1.10
2022-12-11T18:05:26.516Z,-1.16
2022-12-11T18:07:57.409Z,-1.21
2022-12-11T18:10:25.951Z,-1.22
2022-12-11T18:12:52.503Z,-1.20
2022-12-11T18:15:19.012Z,-1.18
2022-12-11T18:17:45.748Z,-1.14
2022-12-11T18:20:13.311Z,-1.09
2022-12-11T18:22:39.745Z,-1.05
2022-12-11T18:25:10.031Z,-0.98
2022-12-11T18:27:38.101Z,-0.96
2022-12-11T18:30:04.801Z,-0.98
2022-12-11T18:32:31.180Z,-1.01
2022-12-11T18:34:57.577Z,-1.08
2022-12-11T18:37:27.897Z,-1.13
2022-12-11T18:39:54.701Z,-1.14
2022-12-11T18:42:36.423Z,-1.12
2022-12-11T18:45:03.746Z,-1.05
2022-12-11T18:47:30.342Z,-1.03
2022-12-11T18:49:56.746Z,-1.05
2022-12-11T18:52:23.125Z,-1.08
2022-12-11T18:54:49.557Z,-1.13
2022-12-11T18:57:15.978Z,-1.06
2022-12-11T18:59:42.405Z,-1.00
2022-12-11T19:02:10.595Z,-0.97
2022-12-11T19:04:37.014Z,-0.98
2022-12-11T19:07:03.516Z,-0.96
2022-12-11T19:09:32.786Z,-1.00
2022-12-11T19:12:03.588Z,-0.89
2022-12-11T19:14:30.006Z,-1.01
2022-12-11T19:16:56.392Z,-1.07
2022-12-11T19:19:23.313Z,-1.07
2022-12-11T19:21:49.746Z,-1.07
2022-12-11T19:24:18.402Z,-1.07
2022-12-11T19:26:45.044Z,-1.08
2022-12-11T19:29:36.115Z,-1.04
2022-12-11T19:32:02.603Z,-0.96
2022-12-11T19:34:29.027Z,-0.90
2022-12-11T19:36:55.489Z,-0.86
2022-12-11T19:39:21.911Z,-0.84
2022-12-11T19:41:48.478Z,-0.83
2022-12-11T19:44:14.893Z,-0.81
2022-12-11T19:46:41.391Z,-0.83
2022-12-11T19:49:07.863Z,-0.87
2022-12-11T19:51:36.864Z,-0.91
2022-12-11T19:54:03.318Z,-0.91
2022-12-11T19:56:29.970Z,-0.90
2022-12-11T19:58:58.443Z,-0.87
2022-12-11T20:01:33.008Z,-0.85
2022-12-11T20:04:01.548Z,-0.80
2022-12-11T20:06:28.921Z,-0.80
2022-12-11T20:08:55.388Z,-0.80
2022-12-11T20:11:22.785Z,-0.80
2022-12-11T20:13:49.472Z,-0.81
2022-12-11T20:16:16.329Z,-0.87
2022-12-11T20:18:44.007Z,-0.93
2022-12-11T20:21:12.981Z,-0.96
2022-12-11T20:23:40.921Z,-1.00
2022-12-11T20:26:12.335Z,-0.99
2022-12-11T20:28:38.771Z,-0.96
2022-12-11T20:31:08.257Z,-0.91
2022-12-11T20:33:34.673Z,-0.88
2022-12-11T20:36:01.646Z,-0.90
2022-12-11T20:38:34.100Z,-0.89
2022-12-11T20:41:00.869Z,-0.88
2022-12-11T20:43:27.289Z,-0.90
2022-12-11T20:45:54.836Z,-0.96
2022-12-11T20:48:21.295Z,-1.00
2022-12-11T20:50:47.691Z,-0.94
2022-12-11T20:53:14.328Z,-0.89
2022-12-11T20:55:41.186Z,-0.84
2022-12-11T20:58:08.075Z,-0.88
2022-12-11T21:00:36.788Z,-0.90
2022-12-11T21:03:03.550Z,-0.94
2022-12-11T21:05:31.008Z,-0.92
2022-12-11T21:07:57.471Z,-0.91
2022-12-11T21:10:27.729Z,-0.90
2022-12-11T21:12:54.153Z,-0.91
2022-12-11T21:15:20.564Z,-0.90
2022-12-11T21:17:46.973Z,-0.86
2022-12-11T21:20:13.416Z,-0.81
2022-12-11T21:22:39.892Z,-0.81
2022-12-11T21:25:06.539Z,-0.83
2022-12-11T21:27:32.948Z,-0.85
2022-12-11T21:30:00.600Z,-0.85
2022-12-11T21:32:27.063Z,-0.87
2022-12-11T21:34:53.456Z,-0.89
2022-12-11T21:37:19.832Z,-0.90
2022-12-11T21:39:46.227Z,-0.90
2022-12-11T21:42:12.652Z,-0.89
2022-12-11T21:47:25.531Z,-0.90
2022-12-11T21:49:51.940Z,-0.93
2022-12-11T21:52:18.341Z,-0.94
2022-12-11T21:54:45.878Z,-0.93
2022-12-11T21:57:13.027Z,-0.91
2022-12-11T21:59:39.428Z,-0.89
2022-12-11T22:02:05.889Z,-0.87
2022-12-11T22:04:32.374Z,-0.85
2022-12-11T22:06:58.806Z,-0.83
2022-12-11T22:09:25.501Z,-0.83
2022-12-11T22:11:57.919Z,-0.85
2022-12-11T22:14:25.430Z,-0.88
2022-12-11T22:16:51.837Z,-0.91
2022-12-11T22:19:18.272Z,-0.92
2022-12-11T22:21:44.668Z,-0.89
2022-12-11T22:24:11.074Z,-0.86
2022-12-11T22:26:39.964Z,-0.88
2022-12-11T22:29:06.382Z,-0.88
2022-12-11T22:31:32.772Z,-0.91
2022-12-11T22:33:59.193Z,-0.88
2022-12-11T22:36:28.650Z,-0.88
2022-12-11T22:38:55.045Z,-0.94
2022-12-11T22:41:30.862Z,-0.95
2022-12-11T22:43:57.611Z,-0.89
2022-12-11T22:46:26.132Z,-0.86
2022-12-11T22:48:53.793Z,-0.86
2022-12-11T22:51:20.291Z,-0.82
2022-12-11T22:53:46.693Z,-0.72
2022-12-11T22:56:13.624Z,-0.66
2022-12-11T22:58:40.090Z,-0.69
2022-12-11T23:01:14.236Z,-0.78
2022-12-11T23:03:40.746Z,-0.90
2022-12-11T23:06:07.883Z,-0.97
2022-12-11T23:08:34.798Z,-1.01
2022-12-11T23:11:01.275Z,-0.98
2022-12-11T23:13:27.705Z,-0.91
2022-12-11T23:15:54.107Z,-0.92
2022-12-11T23:18:20.515Z,-0.99
2022-12-11T23:20:46.898Z,-1.04
2022-12-11T23:23:13.311Z,-1.08
2022-12-11T23:25:39.684Z,-1.12
2022-12-11T23:28:06.087Z,-1.16
2022-12-11T23:30:32.526Z,-1.18
2022-12-11T23:32:58.948Z,-1.20
2022-12-11T23:35:25.313Z,-1.24
2022-12-11T23:37:51.692Z,-1.26
2022-12-11T23:40:18.147Z,-1.26
2022-12-11T23:42:44.594Z,-1.25
2022-12-11T23:45:11.519Z,-1.27
2022-12-11T23:47:38.131Z,-1.25
2022-12-11T23:50:04.992Z,-1.27
2022-12-11T23:52:31.376Z,-1.26
2022-12-11T23:54:57.784Z,-1.26
2022-12-11T23:57:24.152Z,-1.26
2022-12-11T23:59:50.571Z,-1.26
